Time;durP1;ratioP1;P1;durP2;ratioP2;P2;SDS_P1;SDS_P2;PMS_P1;PMS_P2;Temp;Humidity;BMP_temperature;BMP_pressure;BME280_temperature;BME280_humidity;BME280_pressure;Samples;Min_cycle;Max_cycle;Signal;HPM_P1;HPM_P2
2023/04/28 00:01:09;;;;;;;18.30;11.55;;;8.10;99.90;;;;;;5110263;28;20051;-57
2023/04/28 00:03:35;;;;;;;15.88;11.73;;;8.10;99.90;;;;;;5110814;28;20035;-55
2023/04/28 00:06:01;;;;;;;14.93;11.80;;;8.00;99.90;;;;;;5110543;28;20044;-56
2023/04/28 00:08:27;;;;;;;17.33;12.95;;;8.00;99.90;;;;;;5109606;28;20378;-57
2023/04/28 00:10:52;;;;;;;17.17;11.83;;;8.00;99.90;;;;;;5110575;28;20036;-57
2023/04/28 00:13:18;;;;;;;22.13;12.67;;;8.00;99.90;;;;;;5110367;28;20273;-57
2023/04/28 00:15:44;;;;;;;15.87;12.20;;;8.00;99.90;;;;;;5110741;28;20036;-57
2023/04/28 00:18:09;;;;;;;21.80;13.03;;;7.90;99.90;;;;;;5109434;28;20081;-57
2023/04/28 00:20:35;;;;;;;19.33;12.10;;;7.90;99.90;;;;;;5109950;28;20480;-56
2023/04/28 00:23:01;;;;;;;17.67;12.77;;;7.90;99.90;;;;;;5110380;28;20035;-57
2023/04/28 00:25:26;;;;;;;21.53;12.33;;;7.90;99.90;;;;;;5110660;28;20040;-57
2023/04/28 00:27:52;;;;;;;18.23;12.23;;;7.90;99.90;;;;;;5109487;28;20037;-57
2023/04/28 00:30:17;;;;;;;17.37;12.33;;;7.90;99.90;;;;;;5109290;28;20031;-57
2023/04/28 00:32:43;;;;;;;15.30;12.13;;;7.90;99.90;;;;;;5110754;28;20507;-56
2023/04/28 00:35:09;;;;;;;15.27;11.10;;;7.90;99.90;;;;;;5110084;28;20038;-57
2023/04/28 00:37:37;;;;;;;19.27;12.47;;;7.90;99.90;;;;;;5109212;28;20027;-56
2023/04/28 00:40:04;;;;;;;18.33;12.52;;;7.90;99.90;;;;;;5106638;28;20107;-57
2023/04/28 00:42:30;;;;;;;17.25;10.93;;;7.90;99.90;;;;;;5090046;28;20393;-55
2023/04/28 00:44:56;;;;;;;20.38;13.80;;;7.90;99.90;;;;;;5089981;28;20044;-56
2023/04/28 00:47:22;;;;;;;21.58;12.00;;;7.80;99.90;;;;;;5098029;28;20032;-57
2023/04/28 00:49:48;;;;;;;12.90;9.77;;;7.80;99.90;;;;;;5101281;28;20175;-57
2023/04/28 00:52:14;;;;;;;16.30;11.57;;;7.80;99.90;;;;;;5090128;28;20036;-57
2023/04/28 00:54:41;;;;;;;18.55;11.77;;;7.80;99.90;;;;;;5097040;28;20043;-56
2023/04/28 00:57:09;;;;;;;17.77;12.13;;;7.70;99.90;;;;;;5110277;28;20043;-57
2023/04/28 00:59:34;;;;;;;18.45;11.57;;;7.80;99.90;;;;;;5108727;28;20098;-56
2023/04/28 01:02:01;;;;;;;20.47;11.90;;;7.70;99.90;;;;;;5110396;28;20044;-57
2023/04/28 01:04:27;;;;;;;;;;;7.70;99.90;;;;;;5110340;28;20039;-55
2023/04/28 01:06:54;;;;;;;14.60;11.20;;;7.80;99.90;;;;;;5102838;28;19994;-55
2023/04/28 01:09:20;;;;;;;14.23;11.07;;;7.80;99.90;;;;;;5092118;28;20040;-57
2023/04/28 01:11:46;;;;;;;17.60;11.33;;;7.80;99.90;;;;;;5107998;28;20054;-56
2023/04/28 01:14:11;;;;;;;15.53;11.53;;;7.70;99.90;;;;;;5099993;28;20290;-57
2023/04/28 01:16:37;;;;;;;14.47;11.70;;;7.70;99.90;;;;;;5094800;28;20367;-57
2023/04/28 01:19:06;;;;;;;19.05;10.95;;;7.70;99.90;;;;;;5098083;28;20432;-57
2023/04/28 01:21:31;;;;;;;19.55;10.93;;;7.70;99.90;;;;;;5097594;28;20382;-57
2023/04/28 01:23:58;;;;;;;15.05;10.95;;;7.70;99.90;;;;;;5094989;28;20057;-57
2023/04/28 01:26:24;;;;;;;;;;;7.70;99.90;;;;;;5112768;28;20043;-57
2023/04/28 01:28:49;;;;;;;14.45;11.57;;;7.70;99.90;;;;;;5112425;28;19927;-56
2023/04/28 01:31:15;;;;;;;15.60;10.82;;;7.70;99.90;;;;;;5111147;28;20031;-57
2023/04/28 01:33:41;;;;;;;17.10;11.18;;;7.70;99.90;;;;;;5104715;28;20040;-57
2023/04/28 01:36:07;;;;;;;17.60;12.13;;;7.70;99.90;;;;;;5093215;28;20064;-56
2023/04/28 01:38:32;;;;;;;18.23;11.73;;;7.70;99.90;;;;;;5104066;28;20040;-57
2023/04/28 01:40:59;;;;;;;15.87;10.33;;;7.70;99.90;;;;;;5113327;28;20040;-56
2023/04/28 01:43:24;;;;;;;21.83;12.35;;;7.70;99.90;;;;;;5113518;28;20067;-56
2023/04/28 01:45:50;;;;;;;15.35;11.02;;;7.70;99.90;;;;;;5112976;28;20522;-56
2023/04/28 01:48:16;;;;;;;15.67;11.37;;;7.60;99.90;;;;;;5112637;28;20450;-56
2023/04/28 01:50:41;;;;;;;19.42;11.43;;;7.70;99.90;;;;;;5108830;28;20321;-56
2023/04/28 01:53:07;;;;;;;15.23;12.40;;;7.60;99.90;;;;;;5107676;28;20100;-56
2023/04/28 01:55:33;;;;;;;15.83;11.80;;;7.60;99.90;;;;;;5103579;28;20032;-56
2023/04/28 01:57:58;;;;;;;16.70;11.03;;;7.60;99.90;;;;;;5110879;28;20285;-57
2023/04/28 02:00:24;;;;;;;15.60;10.50;;;7.70;99.90;;;;;;5093805;28;20046;-58
2023/04/28 02:02:50;;;;;;;13.63;10.25;;;7.70;99.90;;;;;;5092528;28;20448;-56
2023/04/28 02:05:15;;;;;;;16.13;9.93;;;7.70;99.90;;;;;;5091524;28;20051;-57
2023/04/28 02:07:41;;;;;;;15.07;10.70;;;7.70;99.90;;;;;;5090277;28;20787;-57
2023/04/28 02:10:07;;;;;;;17.13;10.47;;;7.70;99.90;;;;;;5092388;28;20266;-57
2023/04/28 02:12:33;;;;;;;;;;;7.70;99.90;;;;;;5110845;28;20419;-57
2023/04/28 02:14:59;;;;;;;15.02;9.57;;;7.70;99.90;;;;;;5112320;28;19919;-56
2023/04/28 02:17:25;;;;;;;;;;;7.70;99.90;;;;;;5111532;28;20540;-56
2023/04/28 02:19:55;;;;;;;16.75;11.10;;;7.70;99.90;;;;;;5111234;28;20015;-57
2023/04/28 02:22:21;;;;;;;13.68;11.77;;;7.60;99.90;;;;;;5109460;28;20326;-57
2023/04/28 02:24:47;;;;;;;15.32;11.63;;;7.60;99.90;;;;;;5107019;28;20085;-55
2023/04/28 02:27:12;;;;;;;14.33;11.93;;;7.60;99.90;;;;;;5101299;28;20036;-57
2023/04/28 02:29:38;;;;;;;16.48;11.93;;;7.50;99.90;;;;;;5107247;28;20282;-56
2023/04/28 02:32:04;;;;;;;18.33;11.30;;;7.50;99.90;;;;;;5103089;28;20511;-57
2023/04/28 02:34:29;;;;;;;14.23;10.90;;;7.40;99.90;;;;;;5091937;28;20123;-56
2023/04/28 02:36:55;;;;;;;14.80;10.43;;;7.40;99.90;;;;;;5101298;28;20036;-57
2023/04/28 02:39:24;;;;;;;13.67;11.17;;;7.40;99.90;;;;;;5111540;28;20506;-57
2023/04/28 02:41:50;;;;;;;15.32;11.40;;;7.40;99.90;;;;;;5112499;28;20044;-57
2023/04/28 02:44:16;;;;;;;19.20;11.73;;;7.40;99.90;;;;;;5112307;28;20040;-57
2023/04/28 02:46:41;;;;;;;16.07;10.83;;;7.30;99.90;;;;;;5112593;28;20420;-57
2023/04/28 02:49:07;;;;;;;17.07;11.73;;;7.30;99.90;;;;;;5111125;28;20116;-57
2023/04/28 02:51:32;;;;;;;13.37;11.40;;;7.30;99.90;;;;;;5110849;28;20039;-57
2023/04/28 02:53:58;;;;;;;15.37;10.73;;;7.30;99.90;;;;;;5102407;28;20044;-56
2023/04/28 02:56:23;;;;;;;13.53;11.63;;;7.30;99.90;;;;;;5102842;28;20043;-57
2023/04/28 02:58:49;;;;;;;16.13;10.88;;;7.30;99.90;;;;;;5090062;28;20072;-57
2023/04/28 03:01:15;;;;;;;17.97;12.03;;;7.30;99.90;;;;;;5104025;28;20400;-57
2023/04/28 03:03:41;;;;;;;15.98;10.93;;;7.30;99.90;;;;;;5110694;28;20050;-58
2023/04/28 03:06:06;;;;;;;16.97;11.87;;;7.30;99.90;;;;;;5112129;28;20043;-57
2023/04/28 03:08:32;;;;;;;17.40;11.10;;;7.30;99.90;;;;;;5110583;28;20062;-57
2023/04/28 03:10:57;;;;;;;21.73;11.60;;;7.20;99.90;;;;;;5111747;28;20093;-57
2023/04/28 03:13:24;;;;;;;15.47;11.33;;;7.30;99.90;;;;;;5099240;28;20532;-57
2023/04/28 03:15:49;;;;;;;16.45;11.18;;;7.30;99.90;;;;;;5091902;28;20319;-57
2023/04/28 03:18:16;;;;;;;17.30;12.27;;;7.30;99.90;;;;;;5089998;28;20036;-56
2023/04/28 03:20:41;;;;;;;15.40;10.90;;;7.30;99.90;;;;;;5091175;28;20394;-56
2023/04/28 03:23:07;;;;;;;16.63;10.93;;;7.20;99.90;;;;;;5091027;28;20043;-56
2023/04/28 03:25:32;;;;;;;17.43;12.07;;;7.20;99.90;;;;;;5091405;28;20044;-56
2023/04/28 03:27:58;;;;;;;18.43;12.30;;;7.20;99.90;;;;;;5089531;28;20497;-57
2023/04/28 03:30:24;;;;;;;19.27;11.27;;;7.20;99.90;;;;;;5091157;28;20072;-56
2023/04/28 03:32:49;;;;;;;18.33;11.13;;;7.20;99.90;;;;;;5091241;28;20066;-58
2023/04/28 03:35:15;;;;;;;13.98;11.45;;;7.20;99.90;;;;;;5089530;28;20473;-57
2023/04/28 03:37:40;;;;;;;18.67;11.63;;;7.20;99.90;;;;;;5089313;28;20044;-56
2023/04/28 03:40:07;;;;;;;15.00;10.53;;;7.20;99.90;;;;;;5091174;28;20141;-57
2023/04/28 03:42:32;;;;;;;15.35;11.93;;;7.20;99.90;;;;;;5090229;28;20405;-57
2023/04/28 03:44:58;;;;;;;20.57;12.27;;;7.20;99.90;;;;;;5091160;28;20036;-56
2023/04/28 03:47:23;;;;;;;15.40;10.97;;;7.10;99.90;;;;;;5089267;28;20051;-57
2023/04/28 03:49:49;;;;;;;16.53;10.97;;;7.10;99.90;;;;;;5100909;28;20035;-57
2023/04/28 03:52:15;;;;;;;15.55;12.48;;;7.10;99.90;;;;;;5111245;28;20043;-57
2023/04/28 03:54:40;;;;;;;20.55;11.98;;;7.20;99.90;;;;;;5111083;28;20122;-56
2023/04/28 03:57:06;;;;;;;19.50;12.30;;;7.10;99.90;;;;;;5101098;28;20039;-57
2023/04/28 03:59:32;;;;;;;16.50;10.87;;;7.10;99.90;;;;;;5100774;28;20028;-57
2023/04/28 04:01:57;;;;;;;22.67;12.50;;;7.20;99.90;;;;;;5090782;28;20413;-56
2023/04/28 04:04:23;;;;;;;15.55;11.52;;;7.20;99.90;;;;;;5103354;28;20039;-56
2023/04/28 04:06:49;;;;;;;19.70;11.93;;;7.10;99.90;;;;;;5110786;28;20039;-56
2023/04/28 04:09:15;;;;;;;20.52;11.95;;;7.10;99.90;;;;;;5109675;28;20048;-56
2023/04/28 04:11:40;;;;;;;13.88;10.93;;;7.10;99.90;;;;;;5110813;28;20104;-56
2023/04/28 04:14:06;;;;;;;19.93;11.73;;;7.00;99.90;;;;;;5110819;28;20050;-55
2023/04/28 04:16:31;;;;;;;18.87;12.23;;;7.00;99.90;;;;;;5098443;28;20036;-56
2023/04/28 04:18:57;;;;;;;14.47;10.93;;;7.00;99.90;;;;;;5089071;28;20262;-57
2023/04/28 04:21:23;;;;;;;16.07;12.37;;;7.00;99.90;;;;;;5090563;28;20269;-57
2023/04/28 04:23:48;;;;;;;15.37;11.77;;;7.00;99.90;;;;;;5090294;28;20054;-57
2023/04/28 04:26:14;;;;;;;20.30;11.13;;;7.00;99.90;;;;;;5089668;28;20079;-57
2023/04/28 04:28:40;;;;;;;17.92;10.75;;;7.00;99.90;;;;;;5089540;28;20278;-57
2023/04/28 04:31:05;;;;;;;18.77;10.97;;;7.00;99.90;;;;;;5090146;28;20035;-57
2023/04/28 04:33:31;;;;;;;15.63;12.20;;;7.00;99.90;;;;;;5090144;28;20048;-56
2023/04/28 04:35:57;;;;;;;14.65;11.15;;;7.00;99.90;;;;;;5094397;28;20047;-57
2023/04/28 04:38:23;;;;;;;13.83;11.27;;;7.10;99.90;;;;;;5106683;28;20039;-57
2023/04/28 04:40:48;;;;;;;15.13;10.60;;;7.10;99.90;;;;;;5105512;28;20552;-56
2023/04/28 04:43:14;;;;;;;12.73;10.67;;;7.10;99.90;;;;;;5089541;28;20040;-57
2023/04/28 04:45:39;;;;;;;18.90;11.47;;;7.10;99.90;;;;;;5090069;28;20040;-57
2023/04/28 04:48:05;;;;;;;16.47;11.63;;;7.10;99.90;;;;;;5088748;28;20149;-57
2023/04/28 04:50:31;;;;;;;18.80;11.10;;;7.10;99.90;;;;;;5089481;28;20685;-57
2023/04/28 04:52:57;;;;;;;20.20;11.67;;;7.10;99.90;;;;;;5101561;28;20273;-57
2023/04/28 04:55:22;;;;;;;20.15;12.40;;;7.10;99.90;;;;;;5109658;28;20277;-57
2023/04/28 04:57:48;;;;;;;17.83;11.37;;;7.10;99.90;;;;;;5103342;28;20066;-57
2023/04/28 05:00:15;;;;;;;15.47;9.67;;;7.10;99.90;;;;;;5103161;28;20405;-55
2023/04/28 05:02:41;;;;;;;18.08;12.32;;;7.10;99.90;;;;;;5102013;28;20115;-57
2023/04/28 05:05:07;;;;;;;13.27;10.80;;;7.10;99.90;;;;;;5089538;28;20176;-58
2023/04/28 05:07:34;;;;;;;14.45;10.30;;;7.10;99.90;;;;;;5098658;28;20047;-57
2023/04/28 05:10:00;;;;;;;14.48;10.57;;;7.10;99.90;;;;;;5109205;28;20051;-57
2023/04/28 05:12:26;;;;;;;12.60;9.70;;;7.20;99.90;;;;;;5110289;28;20392;-57
2023/04/28 05:14:51;;;;;;;13.77;10.75;;;7.10;99.90;;;;;;5110020;28;20051;-56
2023/04/28 05:17:17;;;;;;;16.80;10.67;;;7.20;99.90;;;;;;5109872;28;20125;-57
2023/04/28 05:19:43;;;;;;;12.70;10.43;;;7.20;99.90;;;;;;5098495;28;20119;-57
2023/04/28 05:22:10;;;;;;;12.98;11.02;;;7.20;99.90;;;;;;5089552;28;20036;-57
2023/04/28 05:24:35;;;;;;;16.77;10.63;;;7.30;99.90;;;;;;5089649;28;20060;-56
2023/04/28 05:27:01;;;;;;;14.57;11.37;;;7.30;99.90;;;;;;5089432;28;20548;-57
2023/04/28 05:29:27;;;;;;;16.53;10.87;;;7.30;99.90;;;;;;5088537;28;20051;-57
2023/04/28 05:31:52;;;;;;;15.17;9.83;;;7.30;99.90;;;;;;5089451;28;20068;-56
2023/04/28 05:34:18;;;;;;;17.60;10.57;;;7.30;99.90;;;;;;5089486;28;20786;-56
2023/04/28 05:36:44;;;;;;;18.20;11.67;;;7.30;99.90;;;;;;5089247;28;20157;-56
2023/04/28 05:39:09;;;;;;;16.53;10.17;;;7.30;99.90;;;;;;5087322;28;20039;-57
2023/04/28 05:41:38;;;;;;;16.90;9.93;;;7.40;99.90;;;;;;5097213;28;20085;-57
2023/04/28 05:44:04;;;;;;;15.18;10.15;;;7.40;99.90;;;;;;5109818;28;20044;-57
2023/04/28 05:46:30;;;;;;;14.90;10.90;;;7.40;99.90;;;;;;5099266;28;20451;-57
2023/04/28 05:48:56;;;;;;;13.73;10.13;;;7.40;99.90;;;;;;5102740;28;20060;-57
2023/04/28 05:51:22;;;;;;;34.47;11.70;;;7.40;99.90;;;;;;5099526;28;20071;-57
2023/04/28 05:53:47;;;;;;;15.90;9.63;;;7.40;99.90;;;;;;5100121;28;20032;-56
2023/04/28 05:56:15;;;;;;;15.10;10.05;;;7.50;99.90;;;;;;5099139;28;20035;-56
2023/04/28 05:58:40;;;;;;;14.32;11.00;;;7.50;99.90;;;;;;5108665;28;20074;-56
2023/04/28 06:01:06;;;;;;;16.70;10.70;;;7.50;99.90;;;;;;5113191;28;20043;-57
2023/04/28 06:03:31;;;;;;;12.47;10.00;;;7.50;99.90;;;;;;5113056;28;20293;-57
2023/04/28 06:05:57;;;;;;;12.63;10.00;;;7.50;99.90;;;;;;5103504;28;20050;-57
2023/04/28 06:08:23;;;;;;;13.10;9.13;;;7.60;99.90;;;;;;5094828;28;20043;-56
2023/04/28 06:10:48;;;;;;;14.43;9.30;;;7.60;99.90;;;;;;5095747;28;20114;-57
2023/04/28 06:13:14;;;;;;;14.53;10.53;;;7.60;99.90;;;;;;5113164;28;20404;-57
2023/04/28 06:15:39;;;;;;;12.17;9.67;;;7.70;99.90;;;;;;5113110;28;20039;-57
2023/04/28 06:18:06;;;;;;;13.57;8.43;;;7.70;99.90;;;;;;5109710;28;20403;-56
2023/04/28 06:20:31;;;;;;;;;;;7.70;99.90;;;;;;5110276;28;20265;-54
2023/04/28 06:22:57;;;;;;;18.45;10.20;;;7.70;99.90;;;;;;5107884;28;20315;-57
2023/04/28 06:25:23;;;;;;;12.37;9.30;;;7.80;99.90;;;;;;5092585;28;20096;-57
2023/04/28 06:27:48;;;;;;;10.73;8.25;;;7.80;99.90;;;;;;5096928;28;20040;-56
2023/04/28 06:30:21;;;;;;;16.37;9.03;;;7.80;99.90;;;;;;5103886;28;20095;-56
2023/04/28 06:32:46;;;;;;;10.63;8.65;;;7.80;99.90;;;;;;5105566;28;20131;-56
2023/04/28 06:35:13;;;;;;;13.40;9.40;;;7.90;99.90;;;;;;5113030;28;20491;-56
2023/04/28 06:37:38;;;;;;;;;;;7.90;99.90;;;;;;5091126;27;20127;-56
2023/04/28 06:40:05;;;;;;;13.73;9.68;;;7.90;99.90;;;;;;5092280;28;20010;-57
2023/04/28 06:42:31;;;;;;;14.88;9.90;;;7.90;99.90;;;;;;5092307;28;20040;-56
2023/04/28 06:44:56;;;;;;;20.48;9.68;;;8.00;99.90;;;;;;5073997;28;20062;-57
2023/04/28 06:47:22;;;;;;;13.90;8.87;;;8.00;99.90;;;;;;5092430;28;20118;-56
2023/04/28 06:49:49;;;;;;;12.32;8.82;;;7.90;99.90;;;;;;5110517;28;20047;-56
2023/04/28 06:52:15;;;;;;;11.15;8.82;;;8.00;99.90;;;;;;5110739;28;20071;-57
2023/04/28 06:54:41;;;;;;;15.52;9.85;;;8.00;99.90;;;;;;5111525;28;20069;-57
2023/04/28 06:57:06;;;;;;;11.77;8.88;;;8.00;99.90;;;;;;5102412;28;20047;-54
2023/04/28 06:59:32;;;;;;;11.57;8.73;;;8.00;99.90;;;;;;5099185;28;20063;-56
2023/04/28 07:01:58;;;;;;;10.00;7.22;;;8.10;99.90;;;;;;5105430;28;20275;-58
2023/04/28 07:04:23;;;;;;;12.97;8.30;;;8.10;99.90;;;;;;5108137;28;20074;-57
2023/04/28 07:06:49;;;;;;;15.37;10.17;;;8.20;99.90;;;;;;5102405;28;20150;-57
2023/04/28 07:09:16;;;;;;;15.52;9.75;;;8.30;99.90;;;;;;5107606;28;20382;-56
2023/04/28 07:11:42;;;;;;;12.00;7.35;;;8.30;99.90;;;;;;5110790;28;20043;-56
2023/04/28 07:14:08;;;;;;;14.98;8.75;;;8.40;99.90;;;;;;5110151;28;20107;-56
2023/04/28 07:16:34;;;;;;;15.18;8.98;;;8.40;99.90;;;;;;5093570;28;20122;-57
2023/04/28 07:19:00;;;;;;;15.80;9.40;;;8.40;99.90;;;;;;5103934;28;20047;-55
2023/04/28 07:21:27;;;;;;;40.42;10.07;;;8.50;99.90;;;;;;5107519;28;20442;-58
2023/04/28 07:23:55;;;;;;;;;;;8.50;99.90;;;;;;5096503;28;20043;-57
2023/04/28 07:26:21;;;;;;;22.90;9.77;;;8.60;99.90;;;;;;5096315;28;19924;-57
2023/04/28 07:28:47;;;;;;;14.18;7.75;;;8.60;99.90;;;;;;5089946;28;20085;-57
2023/04/28 07:31:13;;;;;;;12.53;8.83;;;8.60;99.90;;;;;;5100059;28;20468;-56
2023/04/28 07:33:38;;;;;;;20.70;10.18;;;8.70;99.90;;;;;;5093767;28;20040;-57
2023/04/28 07:36:04;;;;;;;13.40;9.47;;;8.70;99.90;;;;;;5101678;28;20051;-57
2023/04/28 07:38:30;;;;;;;15.75;8.35;;;8.70;99.90;;;;;;5110527;28;20036;-57
2023/04/28 07:40:56;;;;;;;12.75;9.20;;;8.80;99.90;;;;;;5101486;28;20473;-57
2023/04/28 07:43:22;;;;;;;14.38;10.02;;;8.80;99.90;;;;;;5102430;28;20081;-54
2023/04/28 07:45:48;;;;;;;13.97;10.47;;;8.90;99.90;;;;;;5098193;28;20043;-57
2023/04/28 07:48:14;;;;;;;13.73;9.63;;;8.90;99.90;;;;;;5103206;28;20047;-56
2023/04/28 07:50:40;;;;;;;16.40;10.30;;;9.00;99.90;;;;;;5095418;28;20423;-58
2023/04/28 07:53:06;;;;;;;13.17;9.53;;;9.10;99.90;;;;;;5111643;28;20043;-58
2023/04/28 07:55:31;;;;;;;11.77;9.10;;;9.20;99.90;;;;;;5094373;28;20281;-59
2023/04/28 07:57:57;;;;;;;15.53;10.30;;;9.30;99.90;;;;;;5109131;28;20039;-58
2023/04/28 08:00:23;;;;;;;15.25;9.02;;;9.40;99.90;;;;;;5109765;28;20496;-54
2023/04/28 08:02:49;;;;;;;11.75;8.95;;;9.50;99.90;;;;;;5110160;28;20041;-57
2023/04/28 08:05:16;;;;;;;13.57;8.52;;;9.60;99.90;;;;;;5095937;28;20036;-56
2023/04/28 08:07:42;;;;;;;16.88;9.63;;;9.70;99.90;;;;;;5097137;28;20086;-57
2023/04/28 08:10:09;;;;;;;12.93;9.43;;;9.80;99.90;;;;;;5090664;28;20032;-59
2023/04/28 08:12:35;;;;;;;10.25;8.85;;;9.80;99.90;;;;;;5102754;28;20075;-59
2023/04/28 08:15:01;;;;;;;12.63;8.73;;;9.80;99.90;;;;;;5097725;28;20544;-57
2023/04/28 08:17:26;;;;;;;14.77;9.60;;;9.90;99.90;;;;;;5104463;28;20050;-56
2023/04/28 08:19:52;;;;;;;15.80;8.40;;;9.90;99.90;;;;;;5093252;28;20573;-56
2023/04/28 08:22:18;;;;;;;10.55;8.40;;;10.00;99.90;;;;;;5100157;28;20097;-57
2023/04/28 08:24:43;;;;;;;43.13;11.93;;;10.00;99.90;;;;;;5099886;28;20378;-57
2023/04/28 08:27:09;;;;;;;20.63;9.57;;;10.10;99.90;;;;;;5096721;28;20039;-57
2023/04/28 08:29:35;;;;;;;20.45;9.93;;;10.20;99.90;;;;;;5091835;28;20036;-55
2023/04/28 08:32:01;;;;;;;16.47;9.50;;;10.20;99.90;;;;;;5089690;28;20511;-57
2023/04/28 08:34:26;;;;;;;13.23;8.25;;;10.30;99.90;;;;;;5090771;28;20273;-57
2023/04/28 08:36:52;;;;;;;15.70;8.55;;;10.30;99.90;;;;;;5095509;28;20039;-59
2023/04/28 08:39:22;;;;;;;11.80;10.00;;;10.40;99.90;;;;;;5106255;28;20126;-59
2023/04/28 08:41:48;;;;;;;12.40;9.63;;;10.50;99.90;;;;;;5096001;28;20127;-59
2023/04/28 08:44:13;;;;;;;11.10;9.27;;;10.50;99.90;;;;;;5097154;28;20147;-59
2023/04/28 08:46:43;;;;;;;14.30;8.70;;;10.50;99.90;;;;;;5109656;28;20066;-59
2023/04/28 08:49:15;;;;;;;11.93;8.05;;;10.50;99.90;;;;;;5089514;28;20032;-58
2023/04/28 08:51:59;;;;;;;9.25;8.35;;;10.60;99.90;;;;;;5090346;28;20358;-59
2023/04/28 08:54:36;;;;;;;16.60;8.82;;;10.60;99.90;;;;;;5089440;28;20409;-59
2023/04/28 08:57:03;;;;;;;11.60;8.68;;;10.60;99.90;;;;;;5097205;28;20548;-59
2023/04/28 08:59:29;;;;;;;;;;;10.60;99.90;;;;;;5093995;28;20126;-59
2023/04/28 09:01:55;;;;;;;13.65;9.02;;;10.70;99.90;;;;;;5098268;28;19963;-59
2023/04/28 09:04:21;;;;;;;14.05;9.98;;;10.70;99.90;;;;;;5097638;28;20184;-58
2023/04/28 09:06:47;;;;;;;12.48;8.98;;;10.80;99.90;;;;;;5098540;28;20720;-58
2023/04/28 09:09:23;;;;;;;17.30;9.55;;;10.90;99.90;;;;;;5096034;28;20043;-58
2023/04/28 09:12:00;;;;;;;14.05;9.38;;;11.10;99.90;;;;;;5098638;28;20032;-57
2023/04/28 09:14:29;;;;;;;15.30;9.80;;;11.20;99.90;;;;;;5099874;28;20085;-59
2023/04/28 09:16:55;;;;;;;11.95;8.82;;;11.40;99.90;;;;;;5093701;28;20043;-59
2023/04/28 09:19:21;;;;;;;10.13;8.90;;;11.50;99.90;;;;;;5096096;28;20040;-59
2023/04/28 09:21:52;;;;;;;11.45;9.23;;;11.60;99.90;;;;;;5097474;28;20123;-60
2023/04/28 09:24:31;;;;;;;17.33;9.75;;;11.60;99.90;;;;;;5092657;28;20036;-59
2023/04/28 09:26:58;;;;;;;12.25;9.65;;;11.70;99.90;;;;;;5094200;28;20056;-59
2023/04/28 09:29:24;;;;;;;9.75;8.68;;;11.70;99.90;;;;;;5094174;28;20071;-59
2023/04/28 09:31:49;;;;;;;11.38;9.68;;;11.80;99.90;;;;;;5094445;28;20059;-59
2023/04/28 09:34:15;;;;;;;14.57;10.45;;;11.80;99.90;;;;;;5094694;28;20127;-59
2023/04/28 09:36:41;;;;;;;15.60;10.35;;;11.80;99.90;;;;;;5099611;28;20040;-58
2023/04/28 09:39:06;;;;;;;12.00;9.70;;;11.70;99.90;;;;;;5097705;28;20036;-59
2023/04/28 09:41:39;;;;;;;14.90;11.20;;;11.80;99.90;;;;;;5097097;28;20039;-59
2023/04/28 09:44:23;;;;;;;15.35;9.98;;;11.80;99.90;;;;;;5100483;28;20317;-59
2023/04/28 09:46:48;;;;;;;13.95;10.10;;;11.80;99.90;;;;;;5098299;28;20036;-60
2023/04/28 09:49:14;;;;;;;11.50;9.37;;;11.80;99.90;;;;;;5096568;28;20088;-59
2023/04/28 09:51:40;;;;;;;19.13;10.67;;;11.80;99.90;;;;;;5096601;28;20293;-60
2023/04/28 09:54:06;;;;;;;12.05;9.93;;;11.90;99.90;;;;;;5105081;28;20298;-59
2023/04/28 09:56:37;;;;;;;16.70;10.73;;;11.90;99.90;;;;;;5097963;28;20473;-60
2023/04/28 09:59:02;;;;;;;11.65;10.50;;;12.00;99.90;;;;;;5099911;28;20389;-59
2023/04/28 10:01:42;;;;;;;13.65;10.18;;;12.10;99.90;;;;;;5098256;28;20054;-60
2023/04/28 10:04:10;;;;;;;15.80;11.00;;;12.20;99.90;;;;;;5102929;28;20051;-59
2023/04/28 10:06:36;;;;;;;12.13;10.88;;;12.40;99.90;;;;;;5097743;28;20409;-59
2023/04/28 10:09:02;;;;;;;12.57;10.55;;;12.60;99.90;;;;;;5101702;28;20046;-59
2023/04/28 10:11:29;;;;;;;18.85;11.57;;;12.80;99.90;;;;;;5100869;28;20450;-60
2023/04/28 10:13:55;;;;;;;11.00;9.80;;;12.90;99.90;;;;;;5099292;28;20036;-59
2023/04/28 10:16:22;;;;;;;16.92;11.23;;;13.10;99.90;;;;;;5098706;28;20505;-59
2023/04/28 10:18:49;;;;;;;12.85;11.40;;;13.20;99.90;;;;;;5099759;28;20035;-59
2023/04/28 10:21:20;;;;;;;17.35;11.13;;;13.40;99.90;;;;;;5101794;28;20043;-59
2023/04/28 10:23:55;;;;;;;15.13;11.55;;;13.60;99.90;;;;;;5097423;28;20075;-59
2023/04/28 10:26:23;;;;;;;18.25;12.10;;;13.70;99.90;;;;;;5100046;28;20047;-59
2023/04/28 10:28:50;;;;;;;14.88;11.30;;;13.70;99.90;;;;;;5094128;28;20445;-60
2023/04/28 10:31:20;;;;;;;11.30;9.43;;;13.70;99.90;;;;;;5096051;28;20062;-58
2023/04/28 10:33:47;;;;;;;11.75;9.60;;;13.70;99.90;;;;;;5097385;28;20078;-59
2023/04/28 10:36:54;;;;;;;12.57;9.75;;;13.60;99.90;;;;;;5097436;28;20080;-59
2023/04/28 10:39:20;;;;;;;13.38;11.45;;;13.60;99.90;;;;;;5092010;28;20563;-58
2023/04/28 10:41:47;;;;;;;13.50;9.48;;;13.60;99.90;;;;;;5100928;28;20039;-59
2023/04/28 10:44:31;;;;;;;13.98;9.77;;;13.60;99.90;;;;;;5098708;28;20032;-59
2023/04/28 10:47:03;;;;;;;13.73;9.45;;;13.60;99.90;;;;;;5100292;28;20815;-59
2023/04/28 10:49:54;;;;;;;16.65;10.32;;;13.50;99.90;;;;;;5097542;28;20083;-60
2023/04/28 10:52:38;;;;;;;13.43;9.00;;;13.50;99.90;;;;;;5100639;28;20409;-59
2023/04/28 10:55:27;;;;;;;13.55;10.10;;;13.40;99.90;;;;;;5100728;28;20459;-58
2023/04/28 10:58:14;;;;;;;8.27;7.45;;;13.40;99.90;;;;;;5098987;28;20039;-58
2023/04/28 11:00:41;;;;;;;11.85;9.32;;;13.40;99.90;;;;;;5097570;28;20032;-58
2023/04/28 11:03:06;;;;;;;;;;;13.40;99.90;;;;;;5101334;27;20035;-59
2023/04/28 11:05:34;;;;;;;14.32;10.23;;;13.40;99.90;;;;;;5100058;28;20396;-59
2023/04/28 11:08:18;;;;;;;9.95;8.00;;;13.50;99.90;;;;;;5099260;27;20044;-58
2023/04/28 11:11:15;;;;;;;9.52;8.25;;;13.50;99.90;;;;;;5100551;28;20046;-58
2023/04/28 11:13:42;;;;;;;9.23;7.63;;;13.60;99.90;;;;;;5101059;28;20044;-59
2023/04/28 11:16:08;;;;;;;11.00;9.43;;;13.60;99.90;;;;;;5100866;28;20035;-58
2023/04/28 11:18:55;;;;;;;8.43;7.55;;;13.60;99.90;;;;;;5097636;28;20043;-58
2023/04/28 11:21:22;;;;;;;8.88;6.93;;;13.70;99.90;;;;;;5100761;28;20048;-58
2023/04/28 11:23:49;;;;;;;12.65;7.50;;;13.70;99.90;;;;;;5099243;28;20031;-58
2023/04/28 11:26:15;;;;;;;;;;;13.70;99.90;;;;;;5098228;28;20417;-59
2023/04/28 11:28:55;;;;;;;12.50;7.78;;;13.70;99.90;;;;;;5077071;28;19931;-57
2023/04/28 11:31:23;;;;;;;8.77;7.93;;;13.80;99.90;;;;;;5097775;28;20032;-58
2023/04/28 11:33:50;;;;;;;8.82;7.72;;;13.90;99.90;;;;;;5097017;28;20531;-59
2023/04/28 11:36:27;;;;;;;10.85;7.95;;;13.90;99.90;;;;;;5094166;28;20047;-58
2023/04/28 11:38:54;;;;;;;11.00;8.82;;;13.90;99.90;;;;;;5096189;28;20040;-59
2023/04/28 11:41:20;;;;;;;11.02;8.52;;;13.80;99.90;;;;;;5097963;28;20036;-59
2023/04/28 11:43:46;;;;;;;10.32;8.85;;;13.80;99.90;;;;;;5099941;28;20027;-59
2023/04/28 11:46:16;;;;;;;10.45;8.88;;;13.80;99.90;;;;;;5097114;28;20093;-58
2023/04/28 11:48:42;;;;;;;12.43;9.48;;;13.80;99.90;;;;;;5092802;28;20066;-59
2023/04/28 11:51:08;;;;;;;12.00;9.32;;;13.90;99.90;;;;;;5096960;28;20063;-57
2023/04/28 11:53:44;;;;;;;13.38;9.82;;;13.90;99.90;;;;;;5096371;28;20040;-57
2023/04/28 11:56:10;;;;;;;14.15;10.35;;;13.90;99.90;;;;;;5095516;28;20496;-58
2023/04/28 11:58:36;;;;;;;10.77;9.50;;;13.90;99.90;;;;;;5095191;28;20094;-59
2023/04/28 12:01:09;;;;;;;11.75;10.60;;;13.90;99.90;;;;;;5097175;28;20063;-58
2023/04/28 12:03:45;;;;;;;13.73;9.77;;;13.90;99.90;;;;;;5096358;28;20040;-58
2023/04/28 12:06:11;;;;;;;15.70;10.25;;;13.90;99.90;;;;;;5096366;28;20394;-59
2023/04/28 12:08:37;;;;;;;12.55;10.88;;;13.90;99.90;;;;;;5096428;28;20082;-60
2023/04/28 12:11:13;;;;;;;13.80;10.75;;;13.90;99.90;;;;;;5098405;28;20047;-59
2023/04/28 12:13:39;;;;;;;11.15;10.05;;;13.80;99.90;;;;;;5095292;28;20036;-58
2023/04/28 12:16:08;;;;;;;13.93;10.95;;;13.80;99.90;;;;;;5101252;28;20131;-58
2023/04/28 12:18:37;;;;;;;15.13;11.13;;;13.80;99.90;;;;;;5092596;28;20417;-58
2023/04/28 12:21:03;;;;;;;13.07;11.10;;;13.80;99.90;;;;;;5100066;28;20397;-58
2023/04/28 12:23:33;;;;;;;;;;;13.70;99.90;;;;;;5093596;28;20130;-60
2023/04/28 12:25:59;;;;;;;15.07;12.07;;;13.70;99.90;;;;;;5098935;28;20026;-58
2023/04/28 12:28:39;;;;;;;19.73;13.55;;;13.80;99.90;;;;;;5096430;28;20122;-60
2023/04/28 12:31:07;;;;;;;17.00;13.43;;;13.70;99.90;;;;;;5099817;28;20035;-59
2023/04/28 12:33:36;;;;;;;14.45;13.05;;;13.70;99.90;;;;;;5096857;28;20048;-59
2023/04/28 12:36:03;;;;;;;17.95;12.90;;;13.70;99.90;;;;;;5098248;28;20042;-59
2023/04/28 12:38:29;;;;;;;16.38;12.75;;;13.60;99.90;;;;;;5090724;28;20085;-57
2023/04/28 12:40:55;;;;;;;22.63;15.30;;;13.60;99.90;;;;;;5098187;28;20401;-58